PWSweather.com
Personal Weather Stations
Station Observations
MENWDWX1
Menstrie, ScotlandGB

MenstrieScotlandGB

Lat: 56.148322, Lon: -3.85483

Elevation: 62

Station Type: Davis Vantage Pro 2

High Low Average
Temperature 70.5°F21.4°C 46.4°F8.0°C 58.2°F14.6°C
Dew Point 55.6°F13.1°C 39.9°F4.4°C 47.6°F8.7°C
Winds 8.1 mph 13.0 kmh Calm Calm 4.0 mph ESE6.4 kmh ESE
Wind Gusts 16.1 mph25.9 kmh -- 6.0 mph9.7 kmh
Humidity 79% 42% 69%
Pressure 30.11 in1019.6 mb 30.04 in1017.3 mb -
Precipitation 0.00 in0.0 mm - -
Hour Temp Dew Point Humidity Winds Wind Gusts Pressure Precip Precip Rate Daily Precip Total
12:00 AM 50.4°F10.2°C 43.4°F6.3°C 77% 2.3 mph N3.7 kmh N 3.5 mph5.6 kmh 30.06 in1017.9 mb - 0.00 in0.0 mm 0.00 in0.0 mm
12:05 AM 50.1°F10.1°C 43.2°F6.2°C 77% 2.3 mph N3.7 kmh N 3.5 mph5.6 kmh 30.06 in1017.9 mb - 0.00 in0.0 mm 0.00 in0.0 mm
12:10 AM 49.9°F9.9°C 43.0°F6.1°C 77% 2.3 mph N3.7 kmh N 3.5 mph5.6 kmh 30.06 in1017.9 mb - 0.00 in0.0 mm 0.00 in0.0 mm
12:15 AM 49.7°F9.8°C 42.8°F6.0°C 77% 2.3 mph N3.7 kmh N 3.5 mph5.6 kmh 30.06 in1017.9 mb - 0.00 in0.0 mm 0.00 in0.0 mm
12:20 AM 49.6°F9.8°C 42.7°F5.9°C 77% 2.3 mph N3.7 kmh N 3.5 mph5.6 kmh 30.06 in1017.9 mb - 0.00 in0.0 mm 0.00 in0.0 mm
12:25 AM 49.4°F9.7°C 42.5°F5.8°C 77% 2.3 mph N3.7 kmh N 3.5 mph5.6 kmh 30.06 in1017.9 mb - 0.00 in0.0 mm 0.00 in0.0 mm
12:30 AM 49.2°F9.6°C 42.6°F5.9°C 78% 3.5 mph N5.6 kmh N 4.6 mph7.4 kmh 30.06 in1017.9 mb - 0.00 in0.0 mm 0.00 in0.0 mm
12:35 AM 49.1°F9.5°C 42.5°F5.8°C 78% 1.2 mph N1.9 kmh N 3.5 mph5.6 kmh 30.06 in1017.9 mb - 0.00 in0.0 mm 0.00 in0.0 mm
12:40 AM 49.0°F9.4°C 42.1°F5.6°C 77% 1.2 mph N1.9 kmh N 2.3 mph3.7 kmh 30.06 in1017.9 mb - 0.00 in0.0 mm 0.00 in0.0 mm
12:45 AM 48.9°F9.4°C 42.0°F5.6°C 77% 1.2 mph N1.9 kmh N 3.5 mph5.6 kmh 30.06 in1017.9 mb - 0.00 in0.0 mm 0.00 in0.0 mm
12:50 AM 48.8°F9.3°C 41.9°F5.5°C 77% 3.5 mph N5.6 kmh N 3.5 mph5.6 kmh 30.06 in1017.9 mb - 0.00 in0.0 mm 0.00 in0.0 mm
12:55 AM 48.7°F9.3°C 42.1°F5.6°C 78% 2.3 mph N3.7 kmh N 3.5 mph5.6 kmh 30.06 in1017.9 mb - 0.00 in0.0 mm 0.00 in0.0 mm
01:00 AM 48.7°F9.3°C 42.1°F5.6°C 78% 2.3 mph N3.7 kmh N 3.5 mph5.6 kmh 30.06 in1017.9 mb - 0.00 in0.0 mm 0.00 in0.0 mm
01:05 AM 48.6°F9.2°C 42.0°F5.6°C 78% 1.2 mph N1.9 kmh N 2.3 mph3.7 kmh 30.06 in1017.9 mb - 0.00 in0.0 mm 0.00 in0.0 mm
01:10 AM 48.5°F9.2°C 41.9°F5.5°C 78% 1.2 mph N1.9 kmh N 3.5 mph5.6 kmh 30.06 in1017.9 mb - 0.00 in0.0 mm 0.00 in0.0 mm
01:15 AM 48.3°F9.1°C 41.4°F5.2°C 77% 2.3 mph N3.7 kmh N 2.3 mph3.7 kmh 30.06 in1017.9 mb - 0.00 in0.0 mm 0.00 in0.0 mm
01:20 AM 48.2°F9.0°C 41.3°F5.2°C 77% 2.3 mph N3.7 kmh N 3.5 mph5.6 kmh 30.06 in1017.9 mb - 0.00 in0.0 mm 0.00 in0.0 mm
01:25 AM 48.1°F8.9°C 41.2°F5.1°C 77% 1.2 mph N1.9 kmh N 3.5 mph5.6 kmh 30.06 in1017.9 mb - 0.00 in0.0 mm 0.00 in0.0 mm
01:30 AM 48.1°F8.9°C 41.2°F5.1°C 77% 2.3 mph N3.7 kmh N 3.5 mph5.6 kmh 30.06 in1017.9 mb - 0.00 in0.0 mm 0.00 in0.0 mm
01:35 AM 48.0°F8.9°C 41.1°F5.1°C 77% 3.5 mph N5.6 kmh N 3.5 mph5.6 kmh 30.06 in1017.9 mb - 0.00 in0.0 mm 0.00 in0.0 mm
01:40 AM 47.9°F8.8°C 41.4°F5.2°C 78% 1.2 mph N1.9 kmh N 2.3 mph3.7 kmh 30.06 in1017.9 mb - 0.00 in0.0 mm 0.00 in0.0 mm
01:45 AM 47.8°F8.8°C 41.3°F5.2°C 78% 1.2 mph N1.9 kmh N 3.5 mph5.6 kmh 30.06 in1017.9 mb - 0.00 in0.0 mm 0.00 in0.0 mm
01:50 AM 47.7°F8.7°C 41.2°F5.1°C 78% 1.2 mph N1.9 kmh N 2.3 mph3.7 kmh 30.06 in1017.9 mb - 0.00 in0.0 mm 0.00 in0.0 mm
01:55 AM 47.6°F8.7°C 41.1°F5.1°C 78% 1.2 mph N1.9 kmh N 3.5 mph5.6 kmh 30.06 in1017.9 mb - 0.00 in0.0 mm 0.00 in0.0 mm
02:00 AM 47.6°F8.7°C 41.1°F5.1°C 78% 1.2 mph N1.9 kmh N 2.3 mph3.7 kmh 30.06 in1017.9 mb - 0.00 in0.0 mm 0.00 in0.0 mm
02:05 AM 47.7°F8.7°C 41.2°F5.1°C 78% 2.3 mph N3.7 kmh N 3.5 mph5.6 kmh 30.06 in1017.9 mb - 0.00 in0.0 mm 0.00 in0.0 mm
02:10 AM 47.7°F8.7°C 41.2°F5.1°C 78% 1.2 mph N1.9 kmh N 3.5 mph5.6 kmh 30.06 in1017.9 mb - 0.00 in0.0 mm 0.00 in0.0 mm
02:15 AM 47.6°F8.7°C 41.1°F5.1°C 78% 1.2 mph N1.9 kmh N 2.3 mph3.7 kmh 30.06 in1017.9 mb - 0.00 in0.0 mm 0.00 in0.0 mm
02:20 AM 47.6°F8.7°C 41.1°F5.1°C 78% Calm Calm -- 30.06 in1017.9 mb - 0.00 in0.0 mm 0.00 in0.0 mm
02:25 AM 47.5°F8.6°C 40.6°F4.8°C 77% Calm Calm 1.2 mph1.9 kmh 30.06 in1017.9 mb - 0.00 in0.0 mm 0.00 in0.0 mm
02:30 AM 47.4°F8.6°C 40.6°F4.8°C 77% 1.2 mph N1.9 kmh N 2.3 mph3.7 kmh 30.06 in1017.9 mb - 0.00 in0.0 mm 0.00 in0.0 mm
02:35 AM 47.2°F8.4°C 40.4°F4.7°C 77% 1.2 mph N1.9 kmh N 2.3 mph3.7 kmh 30.06 in1017.9 mb - 0.00 in0.0 mm 0.00 in0.0 mm
02:40 AM 47.1°F8.4°C 40.6°F4.8°C 78% 1.2 mph N1.9 kmh N 3.5 mph5.6 kmh 30.06 in1017.9 mb - 0.00 in0.0 mm 0.00 in0.0 mm
02:45 AM 47.0°F8.3°C 40.5°F4.7°C 78% 2.3 mph N3.7 kmh N 3.5 mph5.6 kmh 30.06 in1017.9 mb - 0.00 in0.0 mm 0.00 in0.0 mm
02:50 AM 47.0°F8.3°C 40.5°F4.7°C 78% 1.2 mph N1.9 kmh N 3.5 mph5.6 kmh 30.06 in1017.9 mb - 0.00 in0.0 mm 0.00 in0.0 mm
02:55 AM 46.9°F8.3°C 40.4°F4.7°C 78% 2.3 mph N3.7 kmh N 3.5 mph5.6 kmh 30.06 in1017.9 mb - 0.00 in0.0 mm 0.00 in0.0 mm
03:00 AM 46.9°F8.3°C 40.4°F4.7°C 78% 2.3 mph N3.7 kmh N 3.5 mph5.6 kmh 30.06 in1017.9 mb - 0.00 in0.0 mm 0.00 in0.0 mm
03:05 AM 46.8°F8.2°C 40.3°F4.6°C 78% 1.2 mph N1.9 kmh N 2.3 mph3.7 kmh 30.06 in1017.9 mb - 0.00 in0.0 mm 0.00 in0.0 mm
03:10 AM 46.8°F8.2°C 40.3°F4.6°C 78% 1.2 mph N1.9 kmh N 3.5 mph5.6 kmh 30.06 in1017.9 mb - 0.00 in0.0 mm 0.00 in0.0 mm
03:15 AM 46.8°F8.2°C 40.3°F4.6°C 78% 1.2 mph N1.9 kmh N 2.3 mph3.7 kmh 30.06 in1017.9 mb - 0.00 in0.0 mm 0.00 in0.0 mm
03:20 AM 46.8°F8.2°C 40.3°F4.6°C 78% 1.2 mph N1.9 kmh N 2.3 mph3.7 kmh 30.06 in1017.9 mb - 0.00 in0.0 mm 0.00 in0.0 mm
03:25 AM 46.7°F8.2°C 40.2°F4.6°C 78% 2.3 mph N3.7 kmh N 3.5 mph5.6 kmh 30.06 in1017.9 mb - 0.00 in0.0 mm 0.00 in0.0 mm
03:30 AM 46.7°F8.2°C 40.2°F4.6°C 78% 1.2 mph N1.9 kmh N 2.3 mph3.7 kmh 30.07 in1018.3 mb - 0.00 in0.0 mm 0.00 in0.0 mm
03:35 AM 46.7°F8.2°C 40.2°F4.6°C 78% 1.2 mph N1.9 kmh N 3.5 mph5.6 kmh 30.07 in1018.3 mb - 0.00 in0.0 mm 0.00 in0.0 mm
03:40 AM 46.6°F8.1°C 40.1°F4.5°C 78% 1.2 mph N1.9 kmh N 3.5 mph5.6 kmh 30.07 in1018.3 mb - 0.00 in0.0 mm 0.00 in0.0 mm
03:45 AM 46.5°F8.1°C 40.0°F4.4°C 78% 2.3 mph N3.7 kmh N 2.3 mph3.7 kmh 30.07 in1018.3 mb - 0.00 in0.0 mm 0.00 in0.0 mm
03:50 AM 46.4°F8.0°C 39.9°F4.4°C 78% 2.3 mph N3.7 kmh N 3.5 mph5.6 kmh 30.07 in1018.3 mb - 0.00 in0.0 mm 0.00 in0.0 mm
03:55 AM 46.4°F8.0°C 39.9°F4.4°C 78% 1.2 mph N1.9 kmh N 2.3 mph3.7 kmh 30.07 in1018.3 mb - 0.00 in0.0 mm 0.00 in0.0 mm
04:00 AM 46.5°F8.1°C 40.0°F4.4°C 78% 1.2 mph N1.9 kmh N 2.3 mph3.7 kmh 30.07 in1018.3 mb - 0.00 in0.0 mm 0.00 in0.0 mm
04:05 AM 46.5°F8.1°C 40.0°F4.4°C 78% 2.3 mph N3.7 kmh N 3.5 mph5.6 kmh 30.07 in1018.3 mb - 0.00 in0.0 mm 0.00 in0.0 mm
04:10 AM 46.5°F8.1°C 40.0°F4.4°C 78% 2.3 mph NNE3.7 kmh NNE 3.5 mph5.6 kmh 30.07 in1018.3 mb - 0.00 in0.0 mm 0.00 in0.0 mm
04:15 AM 46.6°F8.1°C 40.1°F4.5°C 78% 4.6 mph E7.4 kmh E 6.9 mph11.1 kmh 30.07 in1018.3 mb - 0.00 in0.0 mm 0.00 in0.0 mm
04:20 AM 46.8°F8.2°C 40.3°F4.6°C 78% 4.6 mph E7.4 kmh E 5.8 mph9.3 kmh 30.07 in1018.3 mb - 0.00 in0.0 mm 0.00 in0.0 mm
04:25 AM 46.8°F8.2°C 40.3°F4.6°C 78% 3.5 mph E5.6 kmh E 3.5 mph5.6 kmh 30.07 in1018.3 mb - 0.00 in0.0 mm 0.00 in0.0 mm
04:30 AM 46.8°F8.2°C 40.3°F4.6°C 78% 2.3 mph E3.7 kmh E 4.6 mph7.4 kmh 30.07 in1018.3 mb - 0.00 in0.0 mm 0.00 in0.0 mm
04:35 AM 46.8°F8.2°C 40.6°F4.8°C 79% 4.6 mph E7.4 kmh E 4.6 mph7.4 kmh 30.07 in1018.3 mb - 0.00 in0.0 mm 0.00 in0.0 mm
04:40 AM 46.8°F8.2°C 40.7°F4.8°C 79% 4.6 mph E7.4 kmh E 4.6 mph7.4 kmh 30.08 in1018.6 mb - 0.00 in0.0 mm 0.00 in0.0 mm
04:45 AM 46.9°F8.3°C 40.7°F4.8°C 79% 2.3 mph E3.7 kmh E 3.5 mph5.6 kmh 30.08 in1018.6 mb - 0.00 in0.0 mm 0.00 in0.0 mm
04:50 AM 46.9°F8.3°C 40.7°F4.8°C 79% 3.5 mph ENE5.6 kmh ENE 3.5 mph5.6 kmh 30.07 in1018.3 mb - 0.00 in0.0 mm 0.00 in0.0 mm
04:55 AM 46.9°F8.3°C 40.7°F4.8°C 79% 1.2 mph ENE1.9 kmh ENE 3.5 mph5.6 kmh 30.07 in1018.3 mb - 0.00 in0.0 mm 0.00 in0.0 mm
05:00 AM 46.9°F8.3°C 40.7°F4.8°C 79% 2.3 mph E3.7 kmh E 3.5 mph5.6 kmh 30.07 in1018.3 mb - 0.00 in0.0 mm 0.00 in0.0 mm
05:05 AM 47.0°F8.3°C 40.8°F4.9°C 79% 3.5 mph E5.6 kmh E 4.6 mph7.4 kmh 30.08 in1018.6 mb - 0.00 in0.0 mm 0.00 in0.0 mm
05:10 AM 47.1°F8.4°C 40.9°F4.9°C 79% 4.6 mph E7.4 kmh E 4.6 mph7.4 kmh 30.07 in1018.3 mb - 0.00 in0.0 mm 0.00 in0.0 mm
05:15 AM 47.0°F8.3°C 40.8°F4.9°C 79% 2.3 mph NE3.7 kmh NE 3.5 mph5.6 kmh 30.08 in1018.6 mb - 0.00 in0.0 mm 0.00 in0.0 mm
05:20 AM 47.1°F8.4°C 40.9°F4.9°C 79% 2.3 mph ENE3.7 kmh ENE 3.5 mph5.6 kmh 30.07 in1018.3 mb - 0.00 in0.0 mm 0.00 in0.0 mm
05:25 AM 47.3°F8.5°C 41.1°F5.1°C 79% 2.3 mph E3.7 kmh E 3.5 mph5.6 kmh 30.08 in1018.6 mb - 0.00 in0.0 mm 0.00 in0.0 mm
05:30 AM 47.5°F8.6°C 41.3°F5.2°C 79% 2.3 mph NE3.7 kmh NE 3.5 mph5.6 kmh 30.08 in1018.6 mb - 0.00 in0.0 mm 0.00 in0.0 mm
05:35 AM 47.5°F8.6°C 41.3°F5.2°C 79% 2.3 mph ENE3.7 kmh ENE 3.5 mph5.6 kmh 30.08 in1018.6 mb - 0.00 in0.0 mm 0.00 in0.0 mm
05:40 AM 47.6°F8.7°C 41.4°F5.2°C 79% 2.3 mph ENE3.7 kmh ENE 4.6 mph7.4 kmh 30.08 in1018.6 mb - 0.00 in0.0 mm 0.00 in0.0 mm
05:45 AM 47.8°F8.8°C 41.6°F5.3°C 79% 2.3 mph ENE3.7 kmh ENE 3.5 mph5.6 kmh 30.08 in1018.6 mb - 0.00 in0.0 mm 0.00 in0.0 mm
05:50 AM 48.1°F8.9°C 41.9°F5.5°C 79% 2.3 mph E3.7 kmh E 3.5 mph5.6 kmh 30.08 in1018.6 mb - 0.00 in0.0 mm 0.00 in0.0 mm
05:55 AM 48.3°F9.1°C 42.1°F5.6°C 79% 2.3 mph E3.7 kmh E 3.5 mph5.6 kmh 30.08 in1018.6 mb - 0.00 in0.0 mm 0.00 in0.0 mm
06:00 AM 48.5°F9.2°C 42.0°F5.6°C 78% 2.3 mph E3.7 kmh E 2.3 mph3.7 kmh 30.08 in1018.6 mb - 0.00 in0.0 mm 0.00 in0.0 mm
06:05 AM 48.8°F9.3°C 42.2°F5.7°C 78% 3.5 mph E5.6 kmh E 5.8 mph9.3 kmh 30.08 in1018.6 mb - 0.00 in0.0 mm 0.00 in0.0 mm
06:10 AM 49.1°F9.5°C 42.5°F5.8°C 78% 2.3 mph E3.7 kmh E 3.5 mph5.6 kmh 30.08 in1018.6 mb - 0.00 in0.0 mm 0.00 in0.0 mm
06:15 AM 49.4°F9.7°C 42.8°F6.0°C 78% 2.3 mph SE3.7 kmh SE 3.5 mph5.6 kmh 30.08 in1018.6 mb - 0.00 in0.0 mm 0.00 in0.0 mm
06:20 AM 49.7°F9.8°C 43.1°F6.2°C 78% 2.3 mph E3.7 kmh E 3.5 mph5.6 kmh 30.08 in1018.6 mb - 0.00 in0.0 mm 0.00 in0.0 mm
06:25 AM 49.9°F9.9°C 43.3°F6.3°C 78% 2.3 mph E3.7 kmh E 5.8 mph9.3 kmh 30.08 in1018.6 mb - 0.00 in0.0 mm 0.00 in0.0 mm
06:30 AM 50.1°F10.1°C 43.5°F6.4°C 78% 3.5 mph SE5.6 kmh SE 3.5 mph5.6 kmh 30.08 in1018.6 mb - 0.00 in0.0 mm 0.00 in0.0 mm
06:35 AM 50.4°F10.2°C 43.5°F6.4°C 77% 3.5 mph E5.6 kmh E 3.5 mph5.6 kmh 30.09 in1019.0 mb - 0.00 in0.0 mm 0.00 in0.0 mm
06:40 AM 50.7°F10.4°C 43.8°F6.6°C 77% 2.3 mph ESE3.7 kmh ESE 3.5 mph5.6 kmh 30.09 in1019.0 mb - 0.00 in0.0 mm 0.00 in0.0 mm
06:45 AM 51.0°F10.6°C 44.0°F6.7°C 77% 2.3 mph SE3.7 kmh SE 3.5 mph5.6 kmh 30.09 in1019.0 mb - 0.00 in0.0 mm 0.00 in0.0 mm
06:50 AM 51.3°F10.7°C 44.3°F6.8°C 77% 3.5 mph E5.6 kmh E 4.6 mph7.4 kmh 30.09 in1019.0 mb - 0.00 in0.0 mm 0.00 in0.0 mm
06:55 AM 51.5°F10.8°C 44.5°F6.9°C 77% 3.5 mph SE5.6 kmh SE 5.8 mph9.3 kmh 30.09 in1019.0 mb - 0.00 in0.0 mm 0.00 in0.0 mm
07:00 AM 51.8°F11.0°C 45.2°F7.3°C 78% 2.3 mph SE3.7 kmh SE 3.5 mph5.6 kmh 30.09 in1019.0 mb - 0.00 in0.0 mm 0.00 in0.0 mm
07:05 AM 52.1°F11.2°C 45.4°F7.4°C 78% 3.5 mph ESE5.6 kmh ESE 4.6 mph7.4 kmh 30.09 in1019.0 mb - 0.00 in0.0 mm 0.00 in0.0 mm
07:10 AM 52.3°F11.3°C 45.3°F7.4°C 77% 2.3 mph E3.7 kmh E 2.3 mph3.7 kmh 30.09 in1019.0 mb - 0.00 in0.0 mm 0.00 in0.0 mm
07:15 AM 52.5°F11.4°C 45.8°F7.7°C 78% 1.2 mph SSE1.9 kmh SSE 2.3 mph3.7 kmh 30.08 in1018.6 mb - 0.00 in0.0 mm 0.00 in0.0 mm
07:20 AM 52.7°F11.5°C 45.7°F7.6°C 77% 2.3 mph ESE3.7 kmh ESE 4.6 mph7.4 kmh 30.09 in1019.0 mb - 0.00 in0.0 mm 0.00 in0.0 mm
07:25 AM 53.0°F11.7°C 46.0°F7.8°C 77% 1.2 mph SE1.9 kmh SE 2.3 mph3.7 kmh 30.09 in1019.0 mb - 0.00 in0.0 mm 0.00 in0.0 mm
07:30 AM 53.3°F11.8°C 46.3°F7.9°C 77% 3.5 mph SE5.6 kmh SE 4.6 mph7.4 kmh 30.09 in1019.0 mb - 0.00 in0.0 mm 0.00 in0.0 mm
07:35 AM 53.4°F11.9°C 46.4°F8.0°C 77% 3.5 mph SSE5.6 kmh SSE 4.6 mph7.4 kmh 30.09 in1019.0 mb - 0.00 in0.0 mm 0.00 in0.0 mm
07:40 AM 53.9°F12.2°C 46.9°F8.3°C 77% 4.6 mph E7.4 kmh E 5.8 mph9.3 kmh 30.09 in1019.0 mb - 0.00 in0.0 mm 0.00 in0.0 mm
07:45 AM 54.4°F12.4°C 47.3°F8.5°C 77% 3.5 mph SE5.6 kmh SE 4.6 mph7.4 kmh 30.09 in1019.0 mb - 0.00 in0.0 mm 0.00 in0.0 mm
07:50 AM 54.2°F12.3°C 47.1°F8.4°C 77% 2.3 mph SSE3.7 kmh SSE 5.8 mph9.3 kmh 30.09 in1019.0 mb - 0.00 in0.0 mm 0.00 in0.0 mm
07:55 AM 54.2°F12.3°C 47.2°F8.4°C 77% 3.5 mph S5.6 kmh S 5.8 mph9.3 kmh 30.09 in1019.0 mb - 0.00 in0.0 mm 0.00 in0.0 mm
08:00 AM 54.7°F12.6°C 47.7°F8.7°C 77% 2.3 mph ESE3.7 kmh ESE 6.9 mph11.1 kmh 30.09 in1019.0 mb - 0.00 in0.0 mm 0.00 in0.0 mm
08:05 AM 55.6°F13.1°C 48.2°F9.0°C 76% 3.5 mph SE5.6 kmh SE 5.8 mph9.3 kmh 30.08 in1018.6 mb - 0.00 in0.0 mm 0.00 in0.0 mm
08:10 AM 56.0°F13.3°C 48.6°F9.2°C 76% 4.6 mph SE7.4 kmh SE 5.8 mph9.3 kmh 30.09 in1019.0 mb - 0.00 in0.0 mm 0.00 in0.0 mm
08:15 AM 56.3°F13.5°C 48.5°F9.2°C 75% 3.5 mph SE5.6 kmh SE 4.6 mph7.4 kmh 30.09 in1019.0 mb - 0.00 in0.0 mm 0.00 in0.0 mm
08:20 AM 56.9°F13.8°C 49.1°F9.5°C 75% 3.5 mph ESE5.6 kmh ESE 3.5 mph5.6 kmh 30.08 in1018.6 mb - 0.00 in0.0 mm 0.00 in0.0 mm
08:25 AM 57.3°F14.1°C 49.1°F9.5°C 74% 4.6 mph SE7.4 kmh SE 6.9 mph11.1 kmh 30.08 in1018.6 mb - 0.00 in0.0 mm 0.00 in0.0 mm
08:30 AM 57.3°F14.1°C 49.1°F9.5°C 74% 3.5 mph SSE5.6 kmh SSE 3.5 mph5.6 kmh 30.08 in1018.6 mb - 0.00 in0.0 mm 0.00 in0.0 mm
08:35 AM 57.5°F14.2°C 49.6°F9.8°C 75% 3.5 mph E5.6 kmh E 6.9 mph11.1 kmh 30.08 in1018.6 mb - 0.00 in0.0 mm 0.00 in0.0 mm
08:40 AM 57.7°F14.3°C 49.5°F9.7°C 74% 2.3 mph E3.7 kmh E 5.8 mph9.3 kmh 30.08 in1018.6 mb - 0.00 in0.0 mm 0.00 in0.0 mm
08:45 AM 58.0°F14.4°C 49.7°F9.8°C 74% 3.5 mph SE5.6 kmh SE 6.9 mph11.1 kmh 30.08 in1018.6 mb - 0.00 in0.0 mm 0.00 in0.0 mm
08:50 AM 58.5°F14.7°C 50.2°F10.1°C 74% 3.5 mph ESE5.6 kmh ESE 3.5 mph5.6 kmh 30.08 in1018.6 mb - 0.00 in0.0 mm 0.00 in0.0 mm
08:55 AM 59.1°F15.1°C 50.5°F10.3°C 73% 2.3 mph SE3.7 kmh SE 3.5 mph5.6 kmh 30.08 in1018.6 mb - 0.00 in0.0 mm 0.00 in0.0 mm
09:00 AM 59.2°F15.1°C 50.5°F10.3°C 73% 6.9 mph SE11.1 kmh SE 10.4 mph16.7 kmh 30.08 in1018.6 mb - 0.00 in0.0 mm 0.00 in0.0 mm
09:05 AM 59.3°F15.2°C 50.6°F10.3°C 73% 2.3 mph SSE3.7 kmh SSE 3.5 mph5.6 kmh 30.08 in1018.6 mb - 0.00 in0.0 mm 0.00 in0.0 mm
09:10 AM 59.5°F15.3°C 50.8°F10.4°C 73% 3.5 mph SE5.6 kmh SE 6.9 mph11.1 kmh 30.08 in1018.6 mb - 0.00 in0.0 mm 0.00 in0.0 mm
09:15 AM 59.8°F15.4°C 51.1°F10.6°C 73% 4.6 mph SE7.4 kmh SE 8.1 mph13.0 kmh 30.08 in1018.6 mb - 0.00 in0.0 mm 0.00 in0.0 mm
09:20 AM 60.5°F15.8°C 51.8°F11.0°C 73% 2.3 mph SSE3.7 kmh SSE 5.8 mph9.3 kmh 30.08 in1018.6 mb - 0.00 in0.0 mm 0.00 in0.0 mm
09:25 AM 60.9°F16.1°C 51.8°F11.0°C 72% 2.3 mph SE3.7 kmh SE 8.1 mph13.0 kmh 30.08 in1018.6 mb - 0.00 in0.0 mm 0.00 in0.0 mm
09:30 AM 61.3°F16.3°C 52.2°F11.2°C 72% 4.6 mph SE7.4 kmh SE 8.1 mph13.0 kmh 30.08 in1018.6 mb - 0.00 in0.0 mm 0.00 in0.0 mm
09:35 AM 61.7°F16.5°C 52.2°F11.2°C 71% 3.5 mph SE5.6 kmh SE 4.6 mph7.4 kmh 30.08 in1018.6 mb - 0.00 in0.0 mm 0.00 in0.0 mm
09:40 AM 61.6°F16.4°C 51.7°F10.9°C 70% 5.8 mph E9.3 kmh E 6.9 mph11.1 kmh 30.08 in1018.6 mb - 0.00 in0.0 mm 0.00 in0.0 mm
09:45 AM 62.0°F16.7°C 52.5°F11.4°C 71% 5.8 mph SE9.3 kmh SE 6.9 mph11.1 kmh 30.08 in1018.6 mb - 0.00 in0.0 mm 0.00 in0.0 mm
09:50 AM 62.2°F16.8°C 52.3°F11.3°C 70% 3.5 mph ESE5.6 kmh ESE 5.8 mph9.3 kmh 30.08 in1018.6 mb - 0.00 in0.0 mm 0.00 in0.0 mm
09:55 AM 62.5°F16.9°C 52.6°F11.4°C 70% 3.5 mph ESE5.6 kmh ESE 6.9 mph11.1 kmh 30.08 in1018.6 mb - 0.00 in0.0 mm 0.00 in0.0 mm
10:00 AM 62.6°F17.0°C 52.7°F11.5°C 70% 2.3 mph SSE3.7 kmh SSE 4.6 mph7.4 kmh 30.08 in1018.6 mb - 0.00 in0.0 mm 0.00 in0.0 mm
10:05 AM 62.7°F17.1°C 53.2°F11.8°C 71% 5.8 mph SE9.3 kmh SE 9.2 mph14.8 kmh 30.08 in1018.6 mb - 0.00 in0.0 mm 0.00 in0.0 mm
10:10 AM 62.5°F16.9°C 53.0°F11.7°C 71% 6.9 mph S11.1 kmh S 11.5 mph18.5 kmh 30.08 in1018.6 mb - 0.00 in0.0 mm 0.00 in0.0 mm
10:15 AM 62.4°F16.9°C 52.9°F11.6°C 71% 5.8 mph SE9.3 kmh SE 9.2 mph14.8 kmh 30.08 in1018.6 mb - 0.00 in0.0 mm 0.00 in0.0 mm
10:20 AM 62.2°F16.8°C 52.7°F11.5°C 71% 6.9 mph SSE11.1 kmh SSE 9.2 mph14.8 kmh 30.08 in1018.6 mb - 0.00 in0.0 mm 0.00 in0.0 mm
10:25 AM 62.3°F16.8°C 53.2°F11.8°C 72% 4.6 mph SSE7.4 kmh SSE 9.2 mph14.8 kmh 30.08 in1018.6 mb - 0.00 in0.0 mm 0.00 in0.0 mm
10:30 AM 62.5°F16.9°C 53.0°F11.7°C 71% 3.5 mph S5.6 kmh S 4.6 mph7.4 kmh 30.08 in1018.6 mb - 0.00 in0.0 mm 0.00 in0.0 mm
10:35 AM 62.9°F17.2°C 53.3°F11.8°C 71% 4.6 mph SSE7.4 kmh SSE 10.4 mph16.7 kmh 30.08 in1018.6 mb - 0.00 in0.0 mm 0.00 in0.0 mm
10:40 AM 63.1°F17.3°C 53.2°F11.8°C 70% 3.5 mph SSE5.6 kmh SSE 10.4 mph16.7 kmh 30.08 in1018.6 mb - 0.00 in0.0 mm 0.00 in0.0 mm
10:45 AM 63.2°F17.3°C 53.3°F11.8°C 70% 4.6 mph S7.4 kmh S 11.5 mph18.5 kmh 30.08 in1018.6 mb - 0.00 in0.0 mm 0.00 in0.0 mm
10:50 AM 63.0°F17.2°C 53.4°F11.9°C 71% 4.6 mph S7.4 kmh S 9.2 mph14.8 kmh 30.08 in1018.6 mb - 0.00 in0.0 mm 0.00 in0.0 mm
10:55 AM 63.3°F17.4°C 53.7°F12.1°C 71% 3.5 mph SSE5.6 kmh SSE 9.2 mph14.8 kmh 30.08 in1018.6 mb - 0.00 in0.0 mm 0.00 in0.0 mm
11:00 AM 63.4°F17.4°C 53.8°F12.1°C 71% 5.8 mph S9.3 kmh S 10.4 mph16.7 kmh 30.08 in1018.6 mb - 0.00 in0.0 mm 0.00 in0.0 mm
11:05 AM 63.6°F17.6°C 54.0°F12.2°C 71% 3.5 mph SE5.6 kmh SE 5.8 mph9.3 kmh 30.08 in1018.6 mb - 0.00 in0.0 mm 0.00 in0.0 mm
11:10 AM 63.5°F17.5°C 53.5°F11.9°C 70% 3.5 mph SSE5.6 kmh SSE 9.2 mph14.8 kmh 30.08 in1018.6 mb - 0.00 in0.0 mm 0.00 in0.0 mm
11:15 AM 63.5°F17.5°C 53.9°F12.2°C 71% 3.5 mph S5.6 kmh S 8.1 mph13.0 kmh 30.08 in1018.6 mb - 0.00 in0.0 mm 0.00 in0.0 mm
11:20 AM 63.9°F17.7°C 54.4°F12.4°C 71% 2.3 mph SSW3.7 kmh SSW 4.6 mph7.4 kmh 30.08 in1018.6 mb - 0.00 in0.0 mm 0.00 in0.0 mm
11:25 AM 64.1°F17.8°C 53.7°F12.1°C 69% 3.5 mph SSE5.6 kmh SSE 6.9 mph11.1 kmh 30.08 in1018.6 mb - 0.00 in0.0 mm 0.00 in0.0 mm
11:30 AM 64.1°F17.8°C 54.1°F12.3°C 70% 4.6 mph SSE7.4 kmh SSE 6.9 mph11.1 kmh 30.08 in1018.6 mb - 0.00 in0.0 mm 0.00 in0.0 mm
11:35 AM 64.4°F18.0°C 54.0°F12.2°C 69% 5.8 mph S9.3 kmh S 8.1 mph13.0 kmh 30.08 in1018.6 mb - 0.00 in0.0 mm 0.00 in0.0 mm
11:40 AM 64.6°F18.1°C 54.2°F12.3°C 69% 4.6 mph S7.4 kmh S 6.9 mph11.1 kmh 30.08 in1018.6 mb - 0.00 in0.0 mm 0.00 in0.0 mm
11:45 AM 64.6°F18.1°C 54.2°F12.3°C 69% 4.6 mph SE7.4 kmh SE 8.1 mph13.0 kmh 30.08 in1018.6 mb - 0.00 in0.0 mm 0.00 in0.0 mm
11:50 AM 64.9°F18.3°C 54.1°F12.3°C 68% 3.5 mph S5.6 kmh S 6.9 mph11.1 kmh 30.08 in1018.6 mb - 0.00 in0.0 mm 0.00 in0.0 mm
11:55 AM 65.0°F18.3°C 54.6°F12.6°C 69% 2.3 mph SE3.7 kmh SE 4.6 mph7.4 kmh 30.08 in1018.6 mb - 0.00 in0.0 mm 0.00 in0.0 mm
12:00 PM 65.6°F18.7°C 54.4°F12.4°C 67% 6.9 mph S11.1 kmh S 9.2 mph14.8 kmh 30.08 in1018.6 mb - 0.00 in0.0 mm 0.00 in0.0 mm
12:05 PM 65.9°F18.8°C 54.6°F12.6°C 67% 3.5 mph S5.6 kmh S 4.6 mph7.4 kmh 30.07 in1018.3 mb - 0.00 in0.0 mm 0.00 in0.0 mm
12:10 PM 66.5°F19.2°C 54.8°F12.7°C 66% 4.6 mph S7.4 kmh S 6.9 mph11.1 kmh 30.07 in1018.3 mb - 0.00 in0.0 mm 0.00 in0.0 mm
12:15 PM 66.5°F19.2°C 54.8°F12.7°C 66% 5.8 mph SE9.3 kmh SE 10.4 mph16.7 kmh 30.07 in1018.3 mb - 0.00 in0.0 mm 0.00 in0.0 mm
12:20 PM 66.8°F19.3°C 55.1°F12.8°C 66% 4.6 mph S7.4 kmh S 11.5 mph18.5 kmh 30.07 in1018.3 mb - 0.00 in0.0 mm 0.00 in0.0 mm
12:25 PM 66.8°F19.3°C 54.7°F12.6°C 65% 3.5 mph S5.6 kmh S 5.8 mph9.3 kmh 30.07 in1018.3 mb - 0.00 in0.0 mm 0.00 in0.0 mm
12:30 PM 67.0°F19.4°C 55.2°F12.9°C 66% 6.9 mph S11.1 kmh S 10.4 mph16.7 kmh 30.07 in1018.3 mb - 0.00 in0.0 mm 0.00 in0.0 mm
12:35 PM 67.3°F19.6°C 55.1°F12.8°C 65% 4.6 mph SE7.4 kmh SE 8.1 mph13.0 kmh 30.06 in1017.9 mb - 0.00 in0.0 mm 0.00 in0.0 mm
12:40 PM 67.8°F19.9°C 55.6°F13.1°C 65% 2.3 mph SE3.7 kmh SE 3.5 mph5.6 kmh 30.06 in1017.9 mb - 0.00 in0.0 mm 0.00 in0.0 mm
12:45 PM 68.4°F20.2°C 55.3°F12.9°C 63% 3.5 mph SSE5.6 kmh SSE 4.6 mph7.4 kmh 30.07 in1018.3 mb - 0.00 in0.0 mm 0.00 in0.0 mm
12:50 PM 68.6°F20.3°C 55.5°F13.1°C 63% 3.5 mph SSE5.6 kmh SSE 8.1 mph13.0 kmh 30.06 in1017.9 mb - 0.00 in0.0 mm 0.00 in0.0 mm
12:55 PM 68.6°F20.3°C 54.6°F12.6°C 61% 4.6 mph SE7.4 kmh SE 5.8 mph9.3 kmh 30.06 in1017.9 mb - 0.00 in0.0 mm 0.00 in0.0 mm
01:00 PM 68.7°F20.4°C 54.7°F12.6°C 61% 3.5 mph SSE5.6 kmh SSE 3.5 mph5.6 kmh 30.06 in1017.9 mb - 0.00 in0.0 mm 0.00 in0.0 mm
01:05 PM 69.1°F20.6°C 54.6°F12.6°C 60% 6.9 mph SSE11.1 kmh SSE 9.2 mph14.8 kmh 30.06 in1017.9 mb - 0.00 in0.0 mm 0.00 in0.0 mm
01:10 PM 69.0°F20.6°C 53.6°F12.0°C 58% 4.6 mph S7.4 kmh S 8.1 mph13.0 kmh 30.06 in1017.9 mb - 0.00 in0.0 mm 0.00 in0.0 mm
01:15 PM 69.1°F20.6°C 53.3°F11.8°C 57% 2.3 mph SE3.7 kmh SE 5.8 mph9.3 kmh 30.06 in1017.9 mb - 0.00 in0.0 mm 0.00 in0.0 mm
01:20 PM 69.7°F20.9°C 53.3°F11.8°C 56% 5.8 mph SE9.3 kmh SE 9.2 mph14.8 kmh 30.06 in1017.9 mb - 0.00 in0.0 mm 0.00 in0.0 mm
01:25 PM 69.8°F21.0°C 52.9°F11.6°C 55% 4.6 mph SSE7.4 kmh SSE 5.8 mph9.3 kmh 30.06 in1017.9 mb - 0.00 in0.0 mm 0.00 in0.0 mm
01:30 PM 69.9°F21.1°C 52.5°F11.4°C 54% 8.1 mph S13.0 kmh S 12.7 mph20.4 kmh 30.06 in1017.9 mb - 0.00 in0.0 mm 0.00 in0.0 mm
01:35 PM 69.7°F20.9°C 52.3°F11.3°C 54% 5.8 mph S9.3 kmh S 10.4 mph16.7 kmh 30.06 in1017.9 mb - 0.00 in0.0 mm 0.00 in0.0 mm
01:40 PM 69.7°F20.9°C 52.3°F11.3°C 54% 8.1 mph S13.0 kmh S 11.5 mph18.5 kmh 30.06 in1017.9 mb - 0.00 in0.0 mm 0.00 in0.0 mm
01:45 PM 69.4°F20.8°C 52.0°F11.1°C 54% 6.9 mph S11.1 kmh S 10.4 mph16.7 kmh 30.06 in1017.9 mb - 0.00 in0.0 mm 0.00 in0.0 mm
01:50 PM 69.1°F20.6°C 51.8°F11.0°C 54% 8.1 mph S13.0 kmh S 11.5 mph18.5 kmh 30.06 in1017.9 mb - 0.00 in0.0 mm 0.00 in0.0 mm
01:55 PM 69.0°F20.6°C 51.2°F10.7°C 53% 6.9 mph S11.1 kmh S 9.2 mph14.8 kmh 30.05 in1017.6 mb - 0.00 in0.0 mm 0.00 in0.0 mm
02:00 PM 69.4°F20.8°C 51.0°F10.6°C 52% 5.8 mph SSE9.3 kmh SSE 9.2 mph14.8 kmh 30.05 in1017.6 mb - 0.00 in0.0 mm 0.00 in0.0 mm
02:05 PM 69.6°F20.9°C 51.2°F10.7°C 52% 6.9 mph SSE11.1 kmh SSE 9.2 mph14.8 kmh 30.05 in1017.6 mb - 0.00 in0.0 mm 0.00 in0.0 mm
02:10 PM 69.5°F20.8°C 51.1°F10.6°C 52% 8.1 mph SSE13.0 kmh SSE 12.7 mph20.4 kmh 30.05 in1017.6 mb - 0.00 in0.0 mm 0.00 in0.0 mm
02:15 PM 69.5°F20.8°C 50.6°F10.3°C 51% 5.8 mph SSE9.3 kmh SSE 6.9 mph11.1 kmh 30.05 in1017.6 mb - 0.00 in0.0 mm 0.00 in0.0 mm
02:20 PM 69.7°F20.9°C 50.2°F10.1°C 50% 5.8 mph SSE9.3 kmh SSE 10.4 mph16.7 kmh 30.05 in1017.6 mb - 0.00 in0.0 mm 0.00 in0.0 mm
02:25 PM 69.7°F20.9°C 50.7°F10.4°C 51% 6.9 mph SSE11.1 kmh SSE 9.2 mph14.8 kmh 30.05 in1017.6 mb - 0.00 in0.0 mm 0.00 in0.0 mm
02:30 PM 69.6°F20.9°C 49.6°F9.8°C 49% 6.9 mph S11.1 kmh S 10.4 mph16.7 kmh 30.05 in1017.6 mb - 0.00 in0.0 mm 0.00 in0.0 mm
02:35 PM 69.7°F20.9°C 49.7°F9.8°C 49% 3.5 mph SSE5.6 kmh SSE 5.8 mph9.3 kmh 30.05 in1017.6 mb - 0.00 in0.0 mm 0.00 in0.0 mm
02:40 PM 70.0°F21.1°C 50.0°F10.0°C 49% 4.6 mph S7.4 kmh S 11.5 mph18.5 kmh 30.05 in1017.6 mb - 0.00 in0.0 mm 0.00 in0.0 mm
02:45 PM 70.2°F21.2°C 49.6°F9.8°C 48% 5.8 mph S9.3 kmh S 9.2 mph14.8 kmh 30.05 in1017.6 mb - 0.00 in0.0 mm 0.00 in0.0 mm
02:50 PM 70.2°F21.2°C 50.7°F10.4°C 50% 6.9 mph S11.1 kmh S 13.8 mph22.2 kmh 30.05 in1017.6 mb - 0.00 in0.0 mm 0.00 in0.0 mm
02:55 PM 69.8°F21.0°C 50.3°F10.2°C 50% 6.9 mph S11.1 kmh S 10.4 mph16.7 kmh 30.05 in1017.6 mb - 0.00 in0.0 mm 0.00 in0.0 mm
03:00 PM 69.5°F20.8°C 50.0°F10.0°C 50% 4.6 mph SE7.4 kmh SE 3.5 mph5.6 kmh 30.05 in1017.6 mb - 0.00 in0.0 mm 0.00 in0.0 mm
03:05 PM 69.9°F21.1°C 49.3°F9.6°C 48% 8.1 mph SSE13.0 kmh SSE 11.5 mph18.5 kmh 30.05 in1017.6 mb - 0.00 in0.0 mm 0.00 in0.0 mm
03:10 PM 69.8°F21.0°C 48.7°F9.3°C 47% 4.6 mph SE7.4 kmh SE 6.9 mph11.1 kmh 30.05 in1017.6 mb - 0.00 in0.0 mm 0.00 in0.0 mm
03:15 PM 69.9°F21.1°C 49.3°F9.6°C 48% 4.6 mph SE7.4 kmh SE 8.1 mph13.0 kmh 30.05 in1017.6 mb - 0.00 in0.0 mm 0.00 in0.0 mm
03:20 PM 70.1°F21.2°C 49.5°F9.7°C 48% 6.9 mph SE11.1 kmh SE 10.4 mph16.7 kmh 30.05 in1017.6 mb - 0.00 in0.0 mm 0.00 in0.0 mm
03:25 PM 70.3°F21.3°C 48.5°F9.2°C 46% 6.9 mph SSE11.1 kmh SSE 10.4 mph16.7 kmh 30.05 in1017.6 mb - 0.00 in0.0 mm 0.00 in0.0 mm
03:30 PM 70.3°F21.3°C 49.1°F9.5°C 47% 5.8 mph S9.3 kmh S 12.7 mph20.4 kmh 30.05 in1017.6 mb - 0.00 in0.0 mm 0.00 in0.0 mm
03:35 PM 69.9°F21.1°C 47.0°F8.3°C 44% 8.1 mph S13.0 kmh S 16.1 mph25.9 kmh 30.05 in1017.6 mb - 0.00 in0.0 mm 0.00 in0.0 mm
03:40 PM 69.1°F20.6°C 46.9°F8.3°C 45% 5.8 mph SSE9.3 kmh SSE 11.5 mph18.5 kmh 30.05 in1017.6 mb - 0.00 in0.0 mm 0.00 in0.0 mm
03:45 PM 69.4°F20.8°C 47.1°F8.4°C 45% 3.5 mph SE5.6 kmh SE 4.6 mph7.4 kmh 30.05 in1017.6 mb - 0.00 in0.0 mm 0.00 in0.0 mm
03:50 PM 69.7°F20.9°C 46.2°F7.9°C 43% 3.5 mph SE5.6 kmh SE 3.5 mph5.6 kmh 30.05 in1017.6 mb - 0.00 in0.0 mm 0.00 in0.0 mm
03:55 PM 70.1°F21.2°C 47.2°F8.4°C 44% 4.6 mph SSE7.4 kmh SSE 9.2 mph14.8 kmh 30.05 in1017.6 mb - 0.00 in0.0 mm 0.00 in0.0 mm
04:00 PM 70.3°F21.3°C 46.1°F7.8°C 42% 3.5 mph ESE5.6 kmh ESE 9.2 mph14.8 kmh 30.05 in1017.6 mb - 0.00 in0.0 mm 0.00 in0.0 mm
04:05 PM 70.5°F21.4°C 46.3°F7.9°C 42% 5.8 mph SE9.3 kmh SE 9.2 mph14.8 kmh 30.04 in1017.3 mb - 0.00 in0.0 mm 0.00 in0.0 mm
04:10 PM 70.3°F21.3°C 46.1°F7.8°C 42% 3.5 mph ESE5.6 kmh ESE 10.4 mph16.7 kmh 30.04 in1017.3 mb - 0.00 in0.0 mm 0.00 in0.0 mm
04:15 PM 70.4°F21.3°C 48.6°F9.2°C 46% 3.5 mph SE5.6 kmh SE 5.8 mph9.3 kmh 30.05 in1017.6 mb - 0.00 in0.0 mm 0.00 in0.0 mm
04:20 PM 70.0°F21.1°C 49.4°F9.7°C 48% 6.9 mph SSE11.1 kmh SSE 10.4 mph16.7 kmh 30.04 in1017.3 mb - 0.00 in0.0 mm 0.00 in0.0 mm
04:25 PM 69.3°F20.7°C 49.9°F9.9°C 50% 3.5 mph SE5.6 kmh SE 4.6 mph7.4 kmh 30.04 in1017.3 mb - 0.00 in0.0 mm 0.00 in0.0 mm
04:30 PM 69.0°F20.6°C 50.1°F10.1°C 51% 4.6 mph SE7.4 kmh SE 10.4 mph16.7 kmh 30.04 in1017.3 mb - 0.00 in0.0 mm 0.00 in0.0 mm
04:35 PM 68.3°F20.2°C 50.0°F10.0°C 52% 6.9 mph SSE11.1 kmh SSE 9.2 mph14.8 kmh 30.04 in1017.3 mb - 0.00 in0.0 mm 0.00 in0.0 mm
04:40 PM 67.4°F19.7°C 50.2°F10.1°C 54% 6.9 mph S11.1 kmh S 10.4 mph16.7 kmh 30.04 in1017.3 mb - 0.00 in0.0 mm 0.00 in0.0 mm
04:45 PM 66.6°F19.2°C 49.9°F9.9°C 55% 5.8 mph SSE9.3 kmh SSE 9.2 mph14.8 kmh 30.04 in1017.3 mb - 0.00 in0.0 mm 0.00 in0.0 mm
04:50 PM 66.0°F18.9°C 50.8°F10.4°C 58% 6.9 mph S11.1 kmh S 11.5 mph18.5 kmh 30.04 in1017.3 mb - 0.00 in0.0 mm 0.00 in0.0 mm
04:55 PM 65.6°F18.7°C 50.9°F10.5°C 59% 4.6 mph S7.4 kmh S 6.9 mph11.1 kmh 30.05 in1017.6 mb - 0.00 in0.0 mm 0.00 in0.0 mm
05:00 PM 65.4°F18.6°C 51.1°F10.6°C 60% 3.5 mph SE5.6 kmh SE 8.1 mph13.0 kmh 30.05 in1017.6 mb - 0.00 in0.0 mm 0.00 in0.0 mm
05:05 PM 65.7°F18.7°C 51.0°F10.6°C 59% 4.6 mph ESE7.4 kmh ESE 9.2 mph14.8 kmh 30.05 in1017.6 mb - 0.00 in0.0 mm 0.00 in0.0 mm
05:10 PM 66.0°F18.9°C 50.4°F10.2°C 57% 3.5 mph ESE5.6 kmh ESE 5.8 mph9.3 kmh 30.05 in1017.6 mb - 0.00 in0.0 mm 0.00 in0.0 mm
05:15 PM 66.0°F18.9°C 50.8°F10.4°C 58% 3.5 mph SE5.6 kmh SE 8.1 mph13.0 kmh 30.05 in1017.6 mb - 0.00 in0.0 mm 0.00 in0.0 mm
05:20 PM 65.7°F18.7°C 51.0°F10.6°C 59% 3.5 mph SE5.6 kmh SE 5.8 mph9.3 kmh 30.05 in1017.6 mb - 0.00 in0.0 mm 0.00 in0.0 mm
05:25 PM 65.3°F18.5°C 50.6°F10.3°C 59% 5.8 mph SE9.3 kmh SE 6.9 mph11.1 kmh 30.05 in1017.6 mb - 0.00 in0.0 mm 0.00 in0.0 mm
05:30 PM 64.9°F18.3°C 50.2°F10.1°C 59% 3.5 mph E5.6 kmh E 3.5 mph5.6 kmh 30.05 in1017.6 mb - 0.00 in0.0 mm 0.00 in0.0 mm
05:35 PM 64.8°F18.2°C 50.1°F10.1°C 59% 3.5 mph E5.6 kmh E 3.5 mph5.6 kmh 30.06 in1017.9 mb - 0.00 in0.0 mm 0.00 in0.0 mm
05:40 PM 64.6°F18.1°C 50.0°F10.0°C 59% 4.6 mph SE7.4 kmh SE 6.9 mph11.1 kmh 30.06 in1017.9 mb - 0.00 in0.0 mm 0.00 in0.0 mm
05:45 PM 64.5°F18.1°C 49.8°F9.9°C 59% 3.5 mph E5.6 kmh E 6.9 mph11.1 kmh 30.06 in1017.9 mb - 0.00 in0.0 mm 0.00 in0.0 mm
05:50 PM 64.3°F17.9°C 49.7°F9.8°C 59% 3.5 mph E5.6 kmh E 6.9 mph11.1 kmh 30.06 in1017.9 mb - 0.00 in0.0 mm 0.00 in0.0 mm
05:55 PM 64.0°F17.8°C 49.4°F9.7°C 59% 4.6 mph SE7.4 kmh SE 8.1 mph13.0 kmh 30.06 in1017.9 mb - 0.00 in0.0 mm 0.00 in0.0 mm
06:00 PM 63.9°F17.7°C 49.7°F9.8°C 60% 6.9 mph SE11.1 kmh SE 10.4 mph16.7 kmh 30.06 in1017.9 mb - 0.00 in0.0 mm 0.00 in0.0 mm
06:05 PM 63.7°F17.6°C 50.0°F10.0°C 61% 5.8 mph ESE9.3 kmh ESE 8.1 mph13.0 kmh 30.06 in1017.9 mb - 0.00 in0.0 mm 0.00 in0.0 mm
06:10 PM 63.6°F17.6°C 50.3°F10.2°C 62% 4.6 mph ESE7.4 kmh ESE 6.9 mph11.1 kmh 30.06 in1017.9 mb - 0.00 in0.0 mm 0.00 in0.0 mm
06:15 PM 63.7°F17.6°C 50.9°F10.5°C 63% 3.5 mph E5.6 kmh E 8.1 mph13.0 kmh 30.06 in1017.9 mb - 0.00 in0.0 mm 0.00 in0.0 mm
06:20 PM 63.8°F17.7°C 51.0°F10.6°C 63% 5.8 mph E9.3 kmh E 9.2 mph14.8 kmh 30.07 in1018.3 mb - 0.00 in0.0 mm 0.00 in0.0 mm
06:25 PM 63.7°F17.6°C 50.4°F10.2°C 62% 8.1 mph SE13.0 kmh SE 11.5 mph18.5 kmh 30.07 in1018.3 mb - 0.00 in0.0 mm 0.00 in0.0 mm
06:30 PM 63.2°F17.3°C 50.0°F10.0°C 62% 6.9 mph SE11.1 kmh SE 11.5 mph18.5 kmh 30.07 in1018.3 mb - 0.00 in0.0 mm 0.00 in0.0 mm
06:35 PM 63.0°F17.2°C 49.8°F9.9°C 62% 4.6 mph ESE7.4 kmh ESE 8.1 mph13.0 kmh 30.07 in1018.3 mb - 0.00 in0.0 mm 0.00 in0.0 mm
06:40 PM 62.8°F17.1°C 50.0°F10.0°C 63% 4.6 mph ESE7.4 kmh ESE 6.9 mph11.1 kmh 30.07 in1018.3 mb - 0.00 in0.0 mm 0.00 in0.0 mm
06:45 PM 62.8°F17.1°C 50.4°F10.2°C 64% 5.8 mph SE9.3 kmh SE 8.1 mph13.0 kmh 30.07 in1018.3 mb - 0.00 in0.0 mm 0.00 in0.0 mm
06:50 PM 62.7°F17.1°C 50.8°F10.4°C 65% 5.8 mph ESE9.3 kmh ESE 6.9 mph11.1 kmh 30.07 in1018.3 mb - 0.00 in0.0 mm 0.00 in0.0 mm
06:55 PM 62.6°F17.0°C 50.7°F10.4°C 65% 5.8 mph SE9.3 kmh SE 6.9 mph11.1 kmh 30.07 in1018.3 mb - 0.00 in0.0 mm 0.00 in0.0 mm
07:00 PM 62.6°F17.0°C 50.7°F10.4°C 65% 5.8 mph SE9.3 kmh SE 9.2 mph14.8 kmh 30.07 in1018.3 mb - 0.00 in0.0 mm 0.00 in0.0 mm
07:05 PM 62.3°F16.8°C 50.4°F10.2°C 65% 4.6 mph ESE7.4 kmh ESE 5.8 mph9.3 kmh 30.07 in1018.3 mb - 0.00 in0.0 mm 0.00 in0.0 mm
07:10 PM 62.2°F16.8°C 50.3°F10.2°C 65% 5.8 mph ESE9.3 kmh ESE 4.6 mph7.4 kmh 30.07 in1018.3 mb - 0.00 in0.0 mm 0.00 in0.0 mm
07:15 PM 62.1°F16.7°C 50.2°F10.1°C 65% 2.3 mph SE3.7 kmh SE 9.2 mph14.8 kmh 30.08 in1018.6 mb - 0.00 in0.0 mm 0.00 in0.0 mm
07:20 PM 62.0°F16.7°C 50.5°F10.3°C 66% 4.6 mph SE7.4 kmh SE 6.9 mph11.1 kmh 30.08 in1018.6 mb - 0.00 in0.0 mm 0.00 in0.0 mm
07:25 PM 61.8°F16.6°C 50.3°F10.2°C 66% 4.6 mph SE7.4 kmh SE 5.8 mph9.3 kmh 30.08 in1018.6 mb - 0.00 in0.0 mm 0.00 in0.0 mm
07:30 PM 61.8°F16.6°C 50.3°F10.2°C 66% 5.8 mph ESE9.3 kmh ESE 8.1 mph13.0 kmh 30.08 in1018.6 mb - 0.00 in0.0 mm 0.00 in0.0 mm
07:35 PM 61.7°F16.5°C 50.2°F10.1°C 66% 4.6 mph E7.4 kmh E 8.1 mph13.0 kmh 30.08 in1018.6 mb - 0.00 in0.0 mm 0.00 in0.0 mm
07:40 PM 61.7°F16.5°C 50.6°F10.3°C 67% 2.3 mph SE3.7 kmh SE 5.8 mph9.3 kmh 30.08 in1018.6 mb - 0.00 in0.0 mm 0.00 in0.0 mm
07:45 PM 61.4°F16.3°C 50.4°F10.2°C 67% 5.8 mph ESE9.3 kmh ESE 8.1 mph13.0 kmh 30.08 in1018.6 mb - 0.00 in0.0 mm 0.00 in0.0 mm
07:50 PM 61.1°F16.2°C 50.1°F10.1°C 67% 4.6 mph SE7.4 kmh SE 8.1 mph13.0 kmh 30.08 in1018.6 mb - 0.00 in0.0 mm 0.00 in0.0 mm
07:55 PM 60.8°F16.0°C 50.2°F10.1°C 68% 4.6 mph E7.4 kmh E 6.9 mph11.1 kmh 30.08 in1018.6 mb - 0.00 in0.0 mm 0.00 in0.0 mm
08:00 PM 60.6°F15.9°C 50.3°F10.2°C 69% 4.6 mph E7.4 kmh E 8.1 mph13.0 kmh 30.08 in1018.6 mb - 0.00 in0.0 mm 0.00 in0.0 mm
08:05 PM 60.3°F15.7°C 50.1°F10.1°C 69% 2.3 mph ENE3.7 kmh ENE 3.5 mph5.6 kmh 30.08 in1018.6 mb - 0.00 in0.0 mm 0.00 in0.0 mm
08:10 PM 60.2°F15.7°C 50.4°F10.2°C 70% 3.5 mph ESE5.6 kmh ESE 5.8 mph9.3 kmh 30.08 in1018.6 mb - 0.00 in0.0 mm 0.00 in0.0 mm
08:15 PM 59.9°F15.5°C 50.5°F10.3°C 71% 2.3 mph ENE3.7 kmh ENE 5.8 mph9.3 kmh 30.08 in1018.6 mb - 0.00 in0.0 mm 0.00 in0.0 mm
08:20 PM 59.6°F15.3°C 50.2°F10.1°C 71% 3.5 mph ENE5.6 kmh ENE 5.8 mph9.3 kmh 30.08 in1018.6 mb - 0.00 in0.0 mm 0.00 in0.0 mm
08:25 PM 59.4°F15.2°C 50.4°F10.2°C 72% 1.2 mph ENE1.9 kmh ENE 2.3 mph3.7 kmh 30.09 in1019.0 mb - 0.00 in0.0 mm 0.00 in0.0 mm
08:30 PM 59.1°F15.1°C 50.1°F10.1°C 72% 4.6 mph ESE7.4 kmh ESE 5.8 mph9.3 kmh 30.09 in1019.0 mb - 0.00 in0.0 mm 0.00 in0.0 mm
08:35 PM 58.9°F14.9°C 49.9°F9.9°C 72% 2.3 mph SE3.7 kmh SE 3.5 mph5.6 kmh 30.09 in1019.0 mb - 0.00 in0.0 mm 0.00 in0.0 mm
08:40 PM 58.7°F14.8°C 50.1°F10.1°C 73% 3.5 mph SE5.6 kmh SE 6.9 mph11.1 kmh 30.09 in1019.0 mb - 0.00 in0.0 mm 0.00 in0.0 mm
08:45 PM 58.5°F14.7°C 49.9°F9.9°C 73% 2.3 mph E3.7 kmh E 2.3 mph3.7 kmh 30.09 in1019.0 mb - 0.00 in0.0 mm 0.00 in0.0 mm
08:50 PM 58.4°F14.7°C 49.8°F9.9°C 73% 3.5 mph ESE5.6 kmh ESE 5.8 mph9.3 kmh 30.10 in1019.3 mb - 0.00 in0.0 mm 0.00 in0.0 mm
08:55 PM 58.1°F14.5°C 49.5°F9.7°C 73% 3.5 mph E5.6 kmh E 3.5 mph5.6 kmh 30.09 in1019.0 mb - 0.00 in0.0 mm 0.00 in0.0 mm
09:00 PM 57.9°F14.4°C 49.7°F9.8°C 74% 2.3 mph E3.7 kmh E 3.5 mph5.6 kmh 30.09 in1019.0 mb - 0.00 in0.0 mm 0.00 in0.0 mm
09:05 PM 57.8°F14.3°C 49.6°F9.8°C 74% 1.2 mph E1.9 kmh E 2.3 mph3.7 kmh 30.09 in1019.0 mb - 0.00 in0.0 mm 0.00 in0.0 mm
09:10 PM 57.6°F14.2°C 49.4°F9.7°C 74% 2.3 mph E3.7 kmh E 3.5 mph5.6 kmh 30.10 in1019.3 mb - 0.00 in0.0 mm 0.00 in0.0 mm
09:15 PM 57.5°F14.2°C 49.6°F9.8°C 75% 2.3 mph ESE3.7 kmh ESE 3.5 mph5.6 kmh 30.10 in1019.3 mb - 0.00 in0.0 mm 0.00 in0.0 mm
09:20 PM 57.4°F14.1°C 49.5°F9.7°C 75% 2.3 mph SE3.7 kmh SE 3.5 mph5.6 kmh 30.09 in1019.0 mb - 0.00 in0.0 mm 0.00 in0.0 mm
09:25 PM 57.4°F14.1°C 49.5°F9.7°C 75% 5.8 mph ESE9.3 kmh ESE 8.1 mph13.0 kmh 30.10 in1019.3 mb - 0.00 in0.0 mm 0.00 in0.0 mm
09:30 PM 57.4°F14.1°C 49.2°F9.6°C 74% 2.3 mph SE3.7 kmh SE 3.5 mph5.6 kmh 30.10 in1019.3 mb - 0.00 in0.0 mm 0.00 in0.0 mm
09:35 PM 57.4°F14.1°C 49.2°F9.6°C 74% 2.3 mph SE3.7 kmh SE 3.5 mph5.6 kmh 30.10 in1019.3 mb - 0.00 in0.0 mm 0.00 in0.0 mm
09:40 PM 57.3°F14.1°C 49.1°F9.5°C 74% 3.5 mph S5.6 kmh S 4.6 mph7.4 kmh 30.10 in1019.3 mb - 0.00 in0.0 mm 0.00 in0.0 mm
09:45 PM 57.2°F14.0°C 49.0°F9.4°C 74% 1.2 mph SE1.9 kmh SE 3.5 mph5.6 kmh 30.10 in1019.3 mb - 0.00 in0.0 mm 0.00 in0.0 mm
09:50 PM 57.0°F13.9°C 48.4°F9.1°C 73% 1.2 mph SE1.9 kmh SE 3.5 mph5.6 kmh 30.10 in1019.3 mb - 0.00 in0.0 mm 0.00 in0.0 mm
09:55 PM 56.8°F13.8°C 48.2°F9.0°C 73% 3.5 mph SE5.6 kmh SE 3.5 mph5.6 kmh 30.10 in1019.3 mb - 0.00 in0.0 mm 0.00 in0.0 mm
10:00 PM 56.6°F13.7°C 47.7°F8.7°C 72% 2.3 mph ESE3.7 kmh ESE 5.8 mph9.3 kmh 30.10 in1019.3 mb - 0.00 in0.0 mm 0.00 in0.0 mm
10:05 PM 56.5°F13.6°C 47.2°F8.4°C 71% 2.3 mph ESE3.7 kmh ESE 3.5 mph5.6 kmh 30.10 in1019.3 mb - 0.00 in0.0 mm 0.00 in0.0 mm
10:10 PM 56.4°F13.6°C 47.1°F8.4°C 71% 3.5 mph ESE5.6 kmh ESE 5.8 mph9.3 kmh 30.10 in1019.3 mb - 0.00 in0.0 mm 0.00 in0.0 mm
10:15 PM 56.3°F13.5°C 46.6°F8.1°C 70% 3.5 mph ESE5.6 kmh ESE 5.8 mph9.3 kmh 30.11 in1019.6 mb - 0.00 in0.0 mm 0.00 in0.0 mm
10:20 PM 56.2°F13.4°C 46.6°F8.1°C 70% 5.8 mph SE9.3 kmh SE 8.1 mph13.0 kmh 30.11 in1019.6 mb - 0.00 in0.0 mm 0.00 in0.0 mm
10:25 PM 56.2°F13.4°C 46.5°F8.1°C 70% 2.3 mph SSE3.7 kmh SSE 4.6 mph7.4 kmh 30.10 in1019.3 mb - 0.00 in0.0 mm 0.00 in0.0 mm
10:30 PM 56.0°F13.3°C 46.4°F8.0°C 70% 4.6 mph SE7.4 kmh SE 6.9 mph11.1 kmh 30.11 in1019.6 mb - 0.00 in0.0 mm 0.00 in0.0 mm
10:35 PM 55.9°F13.3°C 45.9°F7.7°C 69% 2.3 mph E3.7 kmh E 3.5 mph5.6 kmh 30.11 in1019.6 mb - 0.00 in0.0 mm 0.00 in0.0 mm
10:40 PM 55.8°F13.2°C 45.4°F7.4°C 68% 3.5 mph E5.6 kmh E 6.9 mph11.1 kmh 30.11 in1019.6 mb - 0.00 in0.0 mm 0.00 in0.0 mm
10:45 PM 55.7°F13.2°C 45.3°F7.4°C 68% 2.3 mph ENE3.7 kmh ENE 3.5 mph5.6 kmh 30.11 in1019.6 mb - 0.00 in0.0 mm 0.00 in0.0 mm
10:50 PM 55.7°F13.2°C 45.7°F7.6°C 69% 2.3 mph SE3.7 kmh SE 3.5 mph5.6 kmh 30.11 in1019.6 mb - 0.00 in0.0 mm 0.00 in0.0 mm
10:55 PM 55.7°F13.2°C 46.1°F7.8°C 70% 3.5 mph SE5.6 kmh SE 6.9 mph11.1 kmh 30.11 in1019.6 mb - 0.00 in0.0 mm 0.00 in0.0 mm
11:00 PM 55.7°F13.2°C 46.8°F8.2°C 72% 2.3 mph ESE3.7 kmh ESE 6.9 mph11.1 kmh 30.11 in1019.6 mb - 0.00 in0.0 mm 0.00 in0.0 mm
11:05 PM 55.6°F13.1°C 46.7°F8.2°C 72% 3.5 mph E5.6 kmh E 5.8 mph9.3 kmh 30.11 in1019.6 mb - 0.00 in0.0 mm 0.00 in0.0 mm
11:10 PM 55.4°F13.0°C 46.9°F8.3°C 73% 4.6 mph E7.4 kmh E 8.1 mph13.0 kmh 30.11 in1019.6 mb - 0.00 in0.0 mm 0.00 in0.0 mm
11:15 PM 55.3°F12.9°C 47.2°F8.4°C 74% 4.6 mph E7.4 kmh E 8.1 mph13.0 kmh 30.11 in1019.6 mb - 0.00 in0.0 mm 0.00 in0.0 mm
11:20 PM 55.1°F12.8°C 47.0°F8.3°C 74% 6.9 mph E11.1 kmh E 9.2 mph14.8 kmh 30.11 in1019.6 mb - 0.00 in0.0 mm 0.00 in0.0 mm
11:25 PM 55.0°F12.8°C 47.2°F8.4°C 75% 8.1 mph E13.0 kmh E 11.5 mph18.5 kmh 30.11 in1019.6 mb - 0.00 in0.0 mm 0.00 in0.0 mm
11:30 PM 54.8°F12.7°C 47.1°F8.4°C 75% 2.3 mph E3.7 kmh E 3.5 mph5.6 kmh 30.11 in1019.6 mb - 0.00 in0.0 mm 0.00 in0.0 mm
11:35 PM 54.8°F12.7°C 47.4°F8.6°C 76% 3.5 mph ESE5.6 kmh ESE 3.5 mph5.6 kmh 30.11 in1019.6 mb - 0.00 in0.0 mm 0.00 in0.0 mm
11:40 PM 54.7°F12.6°C 47.3°F8.5°C 76% 2.3 mph E3.7 kmh E 6.9 mph11.1 kmh 30.11 in1019.6 mb - 0.00 in0.0 mm 0.00 in0.0 mm
11:45 PM 54.7°F12.6°C 47.3°F8.5°C 76% 4.6 mph ESE7.4 kmh ESE 8.1 mph13.0 kmh 30.11 in1019.6 mb - 0.00 in0.0 mm 0.00 in0.0 mm
11:50 PM 54.6°F12.6°C 47.2°F8.4°C 76% 3.5 mph ESE5.6 kmh ESE 3.5 mph5.6 kmh 30.11 in1019.6 mb - 0.00 in0.0 mm 0.00 in0.0 mm
11:55 PM 54.5°F12.5°C 47.1°F8.4°C 76% 3.5 mph E5.6 kmh E 3.5 mph5.6 kmh 30.11 in1019.6 mb - 0.00 in0.0 mm 0.00 in0.0 mm